Time;durP1;ratioP1;P1;durP2;ratioP2;P2;SDS_P1;SDS_P2;PMS_P1;PMS_P2;Temp;Humidity;BMP_temperature;BMP_pressure;BME280_temperature;BME280_humidity;BME280_pressure;Samples;Min_cycle;Max_cycle;Signal;HPM_P1;HPM_P2
2023/08/01 00:01:47;;;;;;;0.00;0.00;;;;;;;16.49;100.00;99874.97;5030849;28;20105;-46
2023/08/01 00:04:12;;;;;;;0.00;0.00;;;;;;;16.51;100.00;99876.38;5030393;28;20021;-45
2023/08/01 00:06:38;;;;;;;0.00;0.00;;;;;;;16.52;100.00;99874.50;5035396;28;20045;-45
2023/08/01 00:09:03;;;;;;;0.00;0.00;;;;;;;16.50;100.00;99865.75;5051750;28;20016;-49
2023/08/01 00:11:28;;;;;;;0.00;0.00;;;;;;;16.41;100.00;99866.16;5051649;28;20041;-47
2023/08/01 00:13:54;;;;;;;0.00;0.00;;;;;;;16.47;100.00;99867.06;5051579;28;20033;-46
2023/08/01 00:16:19;;;;;;;0.00;0.00;;;;;;;16.49;100.00;99864.13;5051542;28;20331;-46
2023/08/01 00:18:45;;;;;;;0.00;0.00;;;;;;;16.45;100.00;99848.28;5050407;28;20459;-49
2023/08/01 00:21:11;;;;;;;0.00;0.00;;;;;;;16.40;100.00;99850.94;5056892;28;20036;-48
2023/08/01 00:23:37;;;;;;;0.00;0.00;;;;;;;16.41;100.00;99840.91;5058330;28;20025;-50
2023/08/01 00:26:02;;;;;;;0.00;0.00;;;;;;;16.40;100.00;99844.66;5057958;28;20094;-49
2023/08/01 00:28:30;;;;;;;0.00;0.00;;;;;;;16.41;100.00;99841.72;5056043;28;20098;-49
2023/08/01 00:31:11;;;;;;;0.00;0.00;;;;;;;16.44;100.00;99843.94;5056919;28;20080;-49
2023/08/01 00:33:36;;;;;;;0.00;0.00;;;;;;;16.46;100.00;99836.38;5058172;28;20455;-43
2023/08/01 00:36:02;;;;;;;0.00;0.00;;;;;;;16.47;100.00;99839.91;5058055;28;20025;-45
2023/08/01 00:38:28;;;;;;;0.00;0.00;;;;;;;16.43;100.00;99830.63;5058198;28;20032;-43
2023/08/01 00:40:53;;;;;;;0.00;0.00;;;;;;;16.48;100.00;99835.28;5057940;28;20033;-48
2023/08/01 00:43:19;;;;;;;0.00;0.00;;;;;;;16.46;100.00;99833.66;5057935;28;20020;-44
2023/08/01 00:45:45;;;;;;;0.00;0.00;;;;;;;16.41;100.00;99825.41;5058015;28;20074;-44
2023/08/01 00:48:10;;;;;;;0.00;0.00;;;;;;;16.44;100.00;99834.97;5057935;28;20029;-50
2023/08/01 00:50:35;;;;;;;0.00;0.00;;;;;;;16.42;100.00;99829.78;5058039;28;20051;-47
2023/08/01 00:53:01;;;;;;;0.00;0.00;;;;;;;16.42;100.00;99827.06;5057985;28;20041;-47
2023/08/01 00:55:29;;;;;;;0.00;0.00;;;;;;;16.44;100.00;99824.94;5048288;28;20034;-45
2023/08/01 00:57:54;;;;;;;;;;;;;;;16.44;100.00;99824.09;5038126;28;20049;-46
2023/08/01 01:00:20;;;;;;;0.00;0.00;;;;;;;16.46;100.00;99825.50;5052108;28;19913;-46
2023/08/01 01:02:45;;;;;;;0.00;0.00;;;;;;;16.50;100.00;99822.28;5057552;28;20482;-46
2023/08/01 01:05:13;;;;;;;0.00;0.00;;;;;;;16.55;100.00;99817.78;5057455;28;20076;-47
2023/08/01 01:07:39;;;;;;;0.00;0.00;;;;;;;16.57;100.00;99820.25;5056202;28;20452;-47
2023/08/01 01:10:04;;;;;;;0.00;0.00;;;;;;;16.56;100.00;99821.31;5057342;28;20021;-49
2023/08/01 01:12:30;;;;;;;0.10;0.00;;;;;;;16.59;100.00;99818.13;5056534;28;20479;-46
2023/08/01 01:14:55;;;;;;;0.00;0.00;;;;;;;16.60;100.00;99814.31;5057534;28;20029;-45
2023/08/01 01:17:20;;;;;;;0.00;0.00;;;;;;;16.62;100.00;99820.34;5057578;28;20032;-47
2023/08/01 01:19:46;;;;;;;0.00;0.00;;;;;;;16.61;100.00;99818.66;5057271;28;20410;-50
2023/08/01 01:22:12;;;;;;;0.00;0.00;;;;;;;16.66;100.00;99810.59;5042211;28;20025;-47
2023/08/01 01:24:39;;;;;;;0.00;0.00;;;;;;;16.65;100.00;99817.94;5038465;28;20568;-49
2023/08/01 01:27:05;;;;;;;0.00;0.00;;;;;;;16.59;100.00;99820.84;5056398;28;20023;-46
2023/08/01 01:29:31;;;;;;;0.00;0.00;;;;;;;16.62;100.00;99804.84;5057257;28;20108;-47
2023/08/01 01:31:59;;;;;;;0.00;0.00;;;;;;;16.66;100.00;99810.59;5052914;28;20586;-46
2023/08/01 01:34:24;;;;;;;0.00;0.00;;;;;;;16.70;100.00;99817.22;5050653;28;20033;-46
2023/08/01 01:36:50;;;;;;;0.00;0.00;;;;;;;16.71;100.00;99810.69;5052648;28;20033;-47
2023/08/01 01:39:15;;;;;;;0.00;0.00;;;;;;;16.73;100.00;99805.84;5053976;28;20062;-47
2023/08/01 01:41:41;;;;;;;0.00;0.00;;;;;;;16.74;100.00;99798.50;5054277;28;20070;-47
2023/08/01 01:44:06;;;;;;;0.00;0.00;;;;;;;16.71;100.00;99797.09;5054130;28;20025;-50
2023/08/01 01:46:31;;;;;;;0.00;0.00;;;;;;;16.71;100.00;99807.16;5053770;28;20029;-44
2023/08/01 01:48:58;;;;;;;0.00;0.00;;;;;;;16.74;100.00;99806.66;5053901;28;20032;-48
2023/08/01 01:51:25;;;;;;;0.00;0.00;;;;;;;16.73;100.00;99805.03;5049413;28;20458;-47
2023/08/01 01:53:51;;;;;;;0.00;0.00;;;;;;;16.69;100.00;99804.69;5041108;28;20025;-47
2023/08/01 01:56:16;;;;;;;0.00;0.00;;;;;;;16.67;100.00;99806.84;5034303;28;20040;-44
2023/08/01 01:58:41;;;;;;;0.00;0.00;;;;;;;16.69;100.00;99801.97;5034211;28;20158;-43
2023/08/01 02:01:07;;;;;;;0.00;0.00;;;;;;;16.65;100.00;99803.53;5034730;28;20107;-44
2023/08/01 02:03:32;;;;;;;0.00;0.00;;;;;;;16.66;100.00;99803.28;5034876;28;20112;-45
2023/08/01 02:05:57;;;;;;;0.00;0.00;;;;;;;16.68;100.00;99792.16;5034340;28;20173;-44
2023/08/01 02:08:23;;;;;;;0.00;0.00;;;;;;;16.68;100.00;99793.00;5034401;28;20045;-44
2023/08/01 02:10:48;;;;;;;0.00;0.00;;;;;;;16.72;100.00;99787.91;5034544;28;20033;-45
2023/08/01 02:13:14;;;;;;;0.00;0.00;;;;;;;16.72;100.00;99793.34;5034281;28;20022;-46
2023/08/01 02:15:39;;;;;;;0.00;0.00;;;;;;;16.71;100.00;99804.44;5034226;28;20088;-46
2023/08/01 02:18:04;;;;;;;0.00;0.00;;;;;;;16.70;100.00;99798.19;5041560;28;20037;-41
2023/08/01 02:20:30;;;;;;;0.00;0.00;;;;;;;16.46;100.00;99808.41;5044434;28;20040;-47
2023/08/01 02:22:55;;;;;;;0.00;0.00;;;;;;;16.32;100.00;99816.00;5053248;28;20368;-51
2023/08/01 02:25:20;;;;;;;0.00;0.00;;;;;;;16.19;100.00;99816.31;5051812;28;20082;-51
2023/08/01 02:27:46;;;;;;;0.00;0.00;;;;;;;16.09;100.00;99821.56;5034605;28;20106;-47
2023/08/01 02:30:11;;;;;;;0.00;0.00;;;;;;;16.05;100.00;99831.28;5033242;28;20034;-45
2023/08/01 02:32:36;;;;;;;0.00;0.00;;;;;;;16.02;100.00;99830.69;5033348;28;20620;-49
2023/08/01 02:35:02;;;;;;;0.00;0.00;;;;;;;15.97;100.00;99827.88;5033158;28;20450;-45
2023/08/01 02:37:27;;;;;;;0.00;0.00;;;;;;;15.94;100.00;99831.06;5031814;28;20030;-48
2023/08/01 02:39:53;;;;;;;0.00;0.00;;;;;;;15.94;100.00;99836.50;5033383;28;20029;-46
2023/08/01 02:42:18;;;;;;;0.00;0.00;;;;;;;15.97;100.00;99836.00;5032815;28;20033;-47
2023/08/01 02:44:43;;;;;;;0.00;0.00;;;;;;;15.99;100.00;99833.88;5034107;28;20025;-50
2023/08/01 02:47:09;;;;;;;0.00;0.00;;;;;;;15.97;100.00;99835.19;5052759;28;20029;-46
2023/08/01 02:49:34;;;;;;;0.00;0.00;;;;;;;15.99;100.00;99836.59;5052981;28;20027;-50
2023/08/01 02:51:59;;;;;;;0.00;0.00;;;;;;;16.00;100.00;99824.66;5053038;28;20048;-45
2023/08/01 02:54:25;;;;;;;0.00;0.00;;;;;;;16.00;100.00;99824.66;5052654;28;20337;-43
2023/08/01 02:56:51;;;;;;;0.00;0.00;;;;;;;16.01;100.00;99829.06;5051388;28;20021;-45
2023/08/01 02:59:18;;;;;;;0.00;0.00;;;;;;;16.09;100.00;99829.69;5052412;28;20360;-46
2023/08/01 03:01:43;;;;;;;0.00;0.00;;;;;;;16.13;100.00;99833.59;5052433;28;20072;-46
2023/08/01 03:04:11;;;;;;;0.00;0.00;;;;;;;16.10;100.00;99815.91;5052641;28;20287;-46
2023/08/01 03:06:36;;;;;;;0.00;0.00;;;;;;;16.19;100.00;99821.75;5053163;28;20038;-46
2023/08/01 03:09:02;;;;;;;0.00;0.00;;;;;;;16.20;100.00;99818.81;5052597;28;20093;-46
2023/08/01 03:11:27;;;;;;;0.00;0.00;;;;;;;16.19;100.00;99827.19;5052472;28;20025;-44
2023/08/01 03:13:53;;;;;;;0.00;0.00;;;;;;;16.22;100.00;99818.56;5050613;28;20348;-45
2023/08/01 03:16:18;;;;;;;0.00;0.00;;;;;;;16.23;100.00;99823.75;5033698;28;20701;-45
2023/08/01 03:18:43;;;;;;;0.00;0.00;;;;;;;16.16;100.00;99817.63;5032631;28;20060;-46
2023/08/01 03:21:09;;;;;;;0.00;0.00;;;;;;;16.16;100.00;99827.69;5033077;28;20028;-46
2023/08/01 03:23:35;;;;;;;0.00;0.00;;;;;;;16.21;100.00;99816.91;5032686;28;20408;-45
2023/08/01 03:26:00;;;;;;;0.00;0.00;;;;;;;16.21;100.00;99819.63;5032389;28;20071;-43
2023/08/01 03:28:26;;;;;;;0.00;0.00;;;;;;;16.23;100.00;99828.34;5032289;28;20029;-45
2023/08/01 03:30:53;;;;;;;0.00;0.00;;;;;;;16.24;100.00;99824.56;5032413;28;20028;-44
2023/08/01 03:33:19;;;;;;;0.00;0.00;;;;;;;16.28;100.00;99825.72;5032452;28;20086;-46
2023/08/01 03:35:44;;;;;;;0.00;0.00;;;;;;;16.25;100.00;99828.94;5032141;28;20288;-46
2023/08/01 03:38:09;;;;;;;0.00;0.00;;;;;;;16.29;100.00;99837.41;5032243;28;20252;-46
2023/08/01 03:40:35;;;;;;;0.00;0.00;;;;;;;16.29;100.00;99816.50;5044269;28;20025;-47
2023/08/01 03:43:00;;;;;;;0.00;0.00;;;;;;;16.32;100.00;99837.72;5053054;28;20029;-48
2023/08/01 03:45:25;;;;;;;0.00;0.00;;;;;;;16.30;100.00;99836.34;5052478;28;20190;-46
2023/08/01 03:47:51;;;;;;;0.00;0.00;;;;;;;16.24;100.00;99840.84;5052264;28;20360;-46
2023/08/01 03:50:16;;;;;;;0.00;0.00;;;;;;;16.21;100.00;99831.31;5052186;28;20025;-46
2023/08/01 03:52:42;;;;;;;0.00;0.00;;;;;;;16.18;100.00;99844.56;5051118;28;20021;-43
2023/08/01 03:55:07;;;;;;;0.00;0.00;;;;;;;16.16;100.00;99835.81;5051378;28;20033;-46
2023/08/01 03:57:33;;;;;;;0.00;0.00;;;;;;;16.21;100.00;99841.34;5050640;28;20481;-45
2023/08/01 03:59:59;;;;;;;0.00;0.00;;;;;;;16.17;100.00;99835.59;5051869;28;20021;-45
2023/08/01 04:02:25;;;;;;;0.00;0.00;;;;;;;16.21;100.00;99825.06;5051676;28;20533;-48
2023/08/01 04:04:50;;;;;;;0.00;0.00;;;;;;;16.25;100.00;99831.66;5046840;28;20395;-48
2023/08/01 04:07:15;;;;;;;0.00;0.00;;;;;;;16.23;100.00;99823.75;5031845;28;20037;-47
2023/08/01 04:09:41;;;;;;;0.00;0.00;;;;;;;16.20;100.00;99818.00;5031491;28;20082;-47
2023/08/01 04:12:06;;;;;;;0.00;0.00;;;;;;;16.18;100.00;99817.41;5031458;28;20052;-44
2023/08/01 04:14:33;;;;;;;0.00;0.00;;;;;;;16.20;100.00;99815.28;5031562;28;20119;-43
2023/08/01 04:16:58;;;;;;;0.00;0.00;;;;;;;16.23;100.00;99822.94;5032184;28;20121;-46
2023/08/01 04:19:24;;;;;;;0.00;0.00;;;;;;;16.26;100.00;99818.91;5031251;28;20128;-46
2023/08/01 04:21:50;;;;;;;0.00;0.00;;;;;;;16.23;100.00;99821.03;5031746;28;20536;-48
2023/08/01 04:24:15;;;;;;;0.00;0.00;;;;;;;16.22;100.00;99811.25;5031360;28;20034;-43
2023/08/01 04:26:41;;;;;;;0.00;0.00;;;;;;;16.24;100.00;99814.56;5031438;28;20025;-46
2023/08/01 04:29:06;;;;;;;0.00;0.00;;;;;;;16.22;100.00;99810.44;5031447;28;20022;-46
2023/08/01 04:31:31;;;;;;;0.00;0.00;;;;;;;16.23;100.00;99810.16;5031734;28;20507;-45
2023/08/01 04:33:57;;;;;;;0.00;0.00;;;;;;;16.26;100.00;99808.84;5030101;28;20037;-45
2023/08/01 04:36:22;;;;;;;0.00;0.00;;;;;;;16.29;100.00;99811.06;5035133;28;20060;-48
2023/08/01 04:38:47;;;;;;;0.00;0.00;;;;;;;16.23;100.00;99812.06;5031543;28;20361;-41
2023/08/01 04:41:13;;;;;;;0.00;0.00;;;;;;;16.20;100.00;99810.66;5031750;28;20018;-44
2023/08/01 04:43:38;;;;;;;0.00;0.00;;;;;;;16.24;100.00;99811.00;5031363;28;20113;-46
2023/08/01 04:46:04;;;;;;;0.00;0.00;;;;;;;16.23;100.00;99817.50;5035167;28;20071;-44
2023/08/01 04:48:29;;;;;;;0.00;0.00;;;;;;;16.22;100.00;99815.88;5050968;28;20043;-44
2023/08/01 04:50:54;;;;;;;0.00;0.00;;;;;;;16.24;100.00;99819.13;5051043;28;20021;-45
2023/08/01 04:53:20;;;;;;;0.00;0.00;;;;;;;16.24;100.00;99816.41;5050975;28;20715;-46
2023/08/01 04:55:45;;;;;;;0.00;0.00;;;;;;;16.21;100.00;99812.28;5049529;28;20076;-49
2023/08/01 04:58:10;;;;;;;0.00;0.00;;;;;;;16.31;100.00;99814.38;5050857;28;20037;-42
2023/08/01 05:00:37;;;;;;;0.00;0.00;;;;;;;16.28;100.00;99814.88;5046474;28;20037;-48
2023/08/01 05:03:02;;;;;;;0.00;0.00;;;;;;;16.26;100.00;99811.56;5032706;28;20120;-44
2023/08/01 05:05:28;;;;;;;0.00;0.00;;;;;;;16.32;100.00;99815.19;5030937;28;20029;-44
2023/08/01 05:07:53;;;;;;;0.00;0.00;;;;;;;16.35;100.00;99810.13;5033164;28;20426;-45
2023/08/01 05:10:18;;;;;;;0.00;0.00;;;;;;;16.32;100.00;99813.28;5031935;28;20067;-44
2023/08/01 05:12:44;;;;;;;0.00;0.00;;;;;;;16.37;100.00;99809.84;5033175;28;20033;-46
2023/08/01 05:15:09;;;;;;;0.00;0.00;;;;;;;16.40;100.00;99809.34;5033523;28;20960;-47
2023/08/01 05:17:35;;;;;;;0.00;0.00;;;;;;;16.35;100.00;99801.97;5048705;28;20040;-43
2023/08/01 05:20:00;;;;;;;0.00;0.00;;;;;;;16.32;100.00;99802.44;5036877;28;20464;-47
2023/08/01 05:22:25;;;;;;;0.00;0.00;;;;;;;16.35;100.00;99810.13;5033239;28;20452;-46
2023/08/01 05:24:51;;;;;;;0.00;0.00;;;;;;;16.37;100.00;99801.72;5032860;28;20036;-44
2023/08/01 05:27:17;;;;;;;0.00;0.00;;;;;;;16.38;100.00;99809.63;5030295;28;20632;-43
2023/08/01 05:29:42;;;;;;;0.00;0.00;;;;;;;16.50;100.00;99814.97;5037049;28;20154;-44
2023/08/01 05:32:08;;;;;;;0.00;0.00;;;;;;;16.52;100.00;99814.72;5033002;28;20034;-46
2023/08/01 05:34:33;;;;;;;0.00;0.00;;;;;;;16.57;100.00;99812.09;5032992;28;20121;-47
2023/08/01 05:36:58;;;;;;;0.00;0.00;;;;;;;16.68;100.00;99819.34;5032948;28;20124;-45
2023/08/01 05:39:24;;;;;;;0.00;0.00;;;;;;;16.75;100.00;99820.00;5032840;28;20060;-48
2023/08/01 05:41:50;;;;;;;0.00;0.00;;;;;;;16.72;100.00;99823.22;5032817;28;20037;-45
2023/08/01 05:44:16;;;;;;;0.00;0.00;;;;;;;16.80;100.00;99822.84;5036546;28;20044;-49
2023/08/01 05:46:41;;;;;;;0.00;0.00;;;;;;;16.86;100.00;99829.16;5044896;28;20037;-44
2023/08/01 05:49:06;;;;;;;0.00;0.00;;;;;;;16.82;100.00;99819.84;5052420;28;20025;-44
2023/08/01 05:51:32;;;;;;;0.00;0.00;;;;;;;16.81;100.00;99824.47;5052321;28;20059;-49
2023/08/01 05:53:57;;;;;;;0.00;0.00;;;;;;;16.81;100.00;99819.03;5051077;28;20021;-46
2023/08/01 05:56:22;;;;;;;0.00;0.00;;;;;;;16.88;100.00;99825.13;5035976;28;20041;-46
2023/08/01 05:58:48;;;;;;;0.00;0.00;;;;;;;16.93;100.00;99826.28;5030536;28;20589;-47
2023/08/01 06:01:13;;;;;;;0.00;0.00;;;;;;;17.06;100.00;99834.06;5032781;28;20060;-44
2023/08/01 06:03:39;;;;;;;0.00;0.00;;;;;;;17.16;100.00;99828.78;5045052;28;20104;-46
2023/08/01 06:06:04;;;;;;;0.00;0.00;;;;;;;17.24;100.00;99822.91;5052014;28;20033;-49
2023/08/01 06:08:30;;;;;;;0.00;0.00;;;;;;;17.33;100.00;99826.88;5046525;28;20060;-46
2023/08/01 06:10:55;;;;;;;0.00;0.00;;;;;;;17.26;100.00;99823.50;5034391;28;20068;-46
2023/08/01 06:13:21;;;;;;;0.00;0.00;;;;;;;17.26;100.00;99823.50;5049209;28;20108;-48
2023/08/01 06:15:46;;;;;;;0.00;0.00;;;;;;;17.51;100.00;99830.38;5043342;28;20033;-44
2023/08/01 06:18:12;;;;;;;0.00;0.00;;;;;;;17.92;100.00;99828.16;5036108;28;20341;-44
2023/08/01 06:20:37;;;;;;;0.00;0.00;;;;;;;17.98;100.00;99833.41;5051226;28;20057;-45
2023/08/01 06:23:03;;;;;;;0.00;0.00;;;;;;;17.54;100.00;99840.75;5040120;28;20422;-48
2023/08/01 06:25:28;;;;;;;0.00;0.00;;;;;;;17.34;100.00;99839.38;5047909;28;20045;-47
2023/08/01 06:27:54;;;;;;;0.00;0.00;;;;;;;17.14;100.00;99850.00;5040760;28;21015;-46
2023/08/01 06:30:19;;;;;;;0.00;0.00;;;;;;;16.96;100.00;99858.41;5040585;28;20029;-43
2023/08/01 06:32:44;;;;;;;0.00;0.00;;;;;;;16.86;100.00;99859.88;5042458;28;20527;-43
2023/08/01 06:35:16;;;;;;;0.00;0.00;;;;;;;16.70;100.00;99866.13;5040684;28;20087;-54
2023/08/01 06:37:41;;;;;;;0.00;0.00;;;;;;;16.89;100.00;99875.69;5038627;28;20148;-45
2023/08/01 06:40:08;;;;;;;0.00;0.00;;;;;;;17.24;100.00;99869.16;5043092;28;20032;-44
2023/08/01 06:42:33;;;;;;;0.00;0.00;;;;;;;17.51;100.00;99872.00;5039992;28;20180;-47
2023/08/01 06:44:59;;;;;;;0.00;0.00;;;;;;;17.83;100.00;99863.19;5041787;28;20139;-45
2023/08/01 06:47:24;;;;;;;0.00;0.00;;;;;;;18.77;100.00;99850.25;5039970;28;20029;-46
2023/08/01 06:49:49;;;;;;;0.00;0.00;;;;;;;19.78;100.00;99821.94;5040532;28;20593;-45
2023/08/01 06:52:15;;;;;;;0.00;0.00;;;;;;;20.07;100.00;99818.75;5044419;28;20604;-46
2023/08/01 06:54:40;;;;;;;0.00;0.00;;;;;;;20.05;100.00;99824.47;5040311;28;20025;-45
2023/08/01 06:57:08;;;;;;;0.00;0.00;;;;;;;20.39;100.00;99819.34;5039996;28;20020;-49
2023/08/01 06:59:34;;;;;;;0.00;0.00;;;;;;;20.26;100.00;99819.88;5039621;28;20552;-48
2023/08/01 07:02:00;;;;;;;0.00;0.00;;;;;;;20.56;100.00;99819.13;5039078;28;20030;-45
2023/08/01 07:04:26;;;;;;;0.00;0.00;;;;;;;19.75;100.00;99833.41;5039390;28;20025;-44
2023/08/01 07:06:51;;;;;;;0.00;0.00;;;;;;;19.30;100.00;99834.81;5039942;28;20472;-45
2023/08/01 07:09:17;;;;;;;0.00;0.00;;;;;;;19.40;100.00;99839.47;5041350;28;20024;-47
2023/08/01 07:11:42;;;;;;;0.00;0.00;;;;;;;19.47;100.00;99849.06;5037588;28;20040;-45
2023/08/01 07:14:08;;;;;;;0.00;0.00;;;;;;;19.63;100.00;99841.78;5039504;28;20467;-46
2023/08/01 07:16:33;;;;;;;0.00;0.00;;;;;;;19.43;100.00;99841.69;5039679;28;20029;-47
2023/08/01 07:19:00;;;;;;;0.00;0.00;;;;;;;19.47;100.00;99843.63;5043273;28;20030;-45
2023/08/01 07:21:26;;;;;;;0.00;0.00;;;;;;;20.25;100.00;99852.91;5042380;28;20370;-45
2023/08/01 07:23:51;;;;;;;0.00;0.00;;;;;;;20.55;100.00;99844.00;5040392;28;20037;-45
2023/08/01 07:26:16;;;;;;;0.00;0.00;;;;;;;20.78;100.00;99846.19;5040866;28;20044;-46
2023/08/01 07:28:42;;;;;;;0.00;0.00;;;;;;;20.19;100.00;99843.91;5041973;28;20568;-44
2023/08/01 07:31:07;;;;;;;0.00;0.00;;;;;;;20.55;100.00;99852.19;5039532;28;20119;-44
2023/08/01 07:33:33;;;;;;;0.00;0.00;;;;;;;20.95;100.00;99850.53;5039186;28;20029;-45
2023/08/01 07:35:59;;;;;;;0.00;0.00;;;;;;;21.91;100.00;99851.41;5040000;28;20036;-46
2023/08/01 07:38:26;;;;;;;0.17;0.10;;;;;;;21.76;100.00;99854.22;5039933;28;20383;-46
2023/08/01 07:40:52;;;;;;;0.00;0.00;;;;;;;21.16;100.00;99849.41;5046229;28;20041;-46
2023/08/01 07:43:18;;;;;;;0.15;0.00;;;;;;;20.81;100.00;99855.75;5037319;28;20021;-44
2023/08/01 07:45:44;;;;;;;0.00;0.00;;;;;;;20.54;100.00;99861.50;5038975;28;20036;-45
2023/08/01 07:48:09;;;;;;;0.00;0.00;;;;;;;20.98;100.00;99855.47;5042160;28;20125;-47
2023/08/01 07:50:35;;;;;;;0.00;0.00;;;;;;;20.49;100.00;99850.53;5050511;28;20082;-46
2023/08/01 07:53:00;;;;;;;0.00;0.00;;;;;;;20.54;100.00;99853.31;5047450;28;20060;-45
2023/08/01 07:55:25;;;;;;;0.00;0.00;;;;;;;20.52;100.00;99848.06;5049898;28;20021;-45
2023/08/01 07:57:51;;;;;;;0.00;0.00;;;;;;;20.24;100.00;99856.75;5032225;28;20044;-45
2023/08/01 08:00:16;;;;;;;0.00;0.00;;;;;;;20.01;100.00;99868.97;5032201;28;20665;-42
2023/08/01 08:02:43;;;;;;;0.00;0.00;;;;;;;20.18;100.00;99864.13;5041879;28;20028;-45
2023/08/01 08:05:09;;;;;;;0.00;0.00;;;;;;;20.68;100.00;99865.31;5041317;28;20489;-44
2023/08/01 08:07:34;;;;;;;0.00;0.00;;;;;;;20.58;100.00;99862.56;5050483;28;20131;-44
2023/08/01 08:10:00;;;;;;;0.00;0.00;;;;;;;20.49;100.00;99869.66;5048350;28;20036;-43
2023/08/01 08:12:25;;;;;;;0.00;0.00;;;;;;;20.49;100.00;99864.19;5039510;28;20037;-43
2023/08/01 08:14:51;;;;;;;0.00;0.00;;;;;;;21.07;100.00;99875.72;5031222;28;20053;-43
2023/08/01 08:17:16;;;;;;;0.00;0.00;;;;;;;20.94;100.00;99876.28;5031689;28;20422;-45
2023/08/01 08:19:41;;;;;;;0.00;0.00;;;;;;;20.43;100.00;99881.66;5033782;28;20488;-45
2023/08/01 08:22:07;;;;;;;0.00;0.00;;;;;;;19.73;100.00;99890.19;5049572;28;20375;-49
2023/08/01 08:24:32;;;;;;;0.00;0.00;;;;;;;19.28;100.00;99894.25;5051433;28;20375;-46
2023/08/01 08:26:58;;;;;;;0.00;0.00;;;;;;;19.00;100.00;99887.22;5048300;28;20029;-47
2023/08/01 08:29:23;;;;;;;0.00;0.00;;;;;;;18.83;100.00;99898.28;5044631;28;20030;-49
2023/08/01 08:31:48;;;;;;;0.00;0.00;;;;;;;18.81;100.00;99897.72;5046498;28;20032;-47
2023/08/01 08:34:14;;;;;;;0.00;0.00;;;;;;;19.12;100.00;99897.97;5049487;28;20379;-45
2023/08/01 08:36:39;;;;;;;0.00;0.00;;;;;;;19.47;100.00;99898.19;5034891;28;20080;-47
2023/08/01 08:39:05;;;;;;;0.00;0.00;;;;;;;20.05;100.00;99886.50;5032844;28;20026;-46
2023/08/01 08:41:37;;;;;;;0.00;0.00;;;;;;;20.43;100.00;99887.13;5033335;28;20137;-44
2023/08/01 08:44:05;;;;;;;0.00;0.00;;;;;;;20.49;100.00;99892.34;5034281;28;20479;-48
2023/08/01 08:46:34;;;;;;;0.00;0.00;;;;;;;20.42;100.00;99893.69;5036535;28;20033;-43
2023/08/01 08:49:00;;;;;;;0.00;0.00;;;;;;;19.95;100.00;99892.72;5023562;28;20495;-45
2023/08/01 08:51:29;;;;;;;0.00;0.00;;;;;;;19.77;100.00;99902.19;5034644;28;20029;-45
2023/08/01 08:53:56;;;;;;;0.00;0.00;;;;;;;19.86;100.00;99900.63;5035459;28;20033;-45
2023/08/01 08:56:22;;;;;;;0.00;0.00;;;;;;;20.03;100.00;99910.50;5050077;28;20064;-44
2023/08/01 08:58:47;;;;;;;0.00;0.00;;;;;;;20.25;100.00;99897.47;5034972;28;20049;-49
2023/08/01 09:01:13;;;;;;;0.00;0.00;;;;;;;20.47;100.00;99904.63;5033833;28;20495;-47
2023/08/01 09:03:39;;;;;;;0.00;0.00;;;;;;;20.59;100.00;99905.25;5033906;28;20732;-47
2023/08/01 09:06:07;;;;;;;0.00;0.00;;;;;;;20.50;100.00;99896.69;5035298;28;20030;-46
2023/08/01 09:08:35;;;;;;;0.00;0.00;;;;;;;20.76;100.00;99897.59;5034282;28;20029;-49
2023/08/01 09:11:01;;;;;;;0.00;0.00;;;;;;;20.80;100.00;99904.16;5050143;28;20144;-49
2023/08/01 09:13:26;;;;;;;0.00;0.00;;;;;;;20.97;100.00;99905.81;5054760;28;20112;-49
2023/08/01 09:15:52;;;;;;;0.00;0.00;;;;;;;21.13;100.00;99899.22;5042248;28;20029;-43
2023/08/01 09:18:18;;;;;;;0.00;0.00;;;;;;;21.56;100.00;99905.19;5034944;28;20104;-44
2023/08/01 09:20:48;;;;;;;0.00;0.00;;;;;;;21.95;100.00;99904.53;5034807;28;20441;-46
2023/08/01 09:23:14;;;;;;;0.00;0.00;;;;;;;22.12;100.00;99905.00;5034756;28;20037;-48
2023/08/01 09:25:40;;;;;;;0.00;0.00;;;;;;;22.87;100.00;99894.97;5035060;28;20047;-45
2023/08/01 09:28:16;;;;;;;0.00;0.00;;;;;;;23.33;100.00;99909.13;5052124;28;20116;-45
2023/08/01 09:30:51;;;;;;;0.00;0.00;;;;;;;23.62;100.00;99905.53;5054600;28;20063;-46
2023/08/01 09:33:18;;;;;;;0.00;0.00;;;;;;;22.83;100.00;99905.69;5053976;28;20654;-44
2023/08/01 09:35:46;;;;;;;0.00;0.00;;;;;;;22.33;100.00;99918.66;5052757;28;20087;-46
2023/08/01 09:38:13;;;;;;;0.00;0.00;;;;;;;21.99;100.00;99923.97;5044416;28;20037;-50
2023/08/01 09:40:39;;;;;;;0.00;0.00;;;;;;;21.73;100.00;99920.50;5035393;28;20380;-46
2023/08/01 09:43:06;;;;;;;0.00;0.00;;;;;;;21.01;100.00;99928.75;5040283;28;20025;-44
2023/08/01 09:45:32;;;;;;;0.00;0.00;;;;;;;21.14;100.00;99924.66;5049376;28;20112;-46
2023/08/01 09:47:57;;;;;;;0.00;0.00;;;;;;;21.31;100.00;99924.41;5038086;28;20135;-46
2023/08/01 09:50:23;;;;;;;0.00;0.00;;;;;;;21.97;100.00;99932.47;5049770;28;20041;-44
2023/08/01 09:52:52;;;;;;;0.00;0.00;;;;;;;21.95;100.00;99942.06;5039719;28;20104;-46
2023/08/01 09:55:27;;;;;;;0.00;0.00;;;;;;;21.83;100.00;99936.91;5051023;28;20029;-44
2023/08/01 09:57:53;;;;;;;0.00;0.00;;;;;;;21.88;100.00;99934.97;5052609;28;20051;-47
2023/08/01 10:00:19;;;;;;;0.00;0.00;;;;;;;22.30;100.00;99927.41;5044097;28;20056;-46
2023/08/01 10:02:45;;;;;;;0.00;0.00;;;;;;;21.96;100.00;99939.06;5035044;28;20495;-44
2023/08/01 10:05:12;;;;;;;0.00;0.00;;;;;;;22.07;100.00;99926.94;5052953;28;20033;-45
2023/08/01 10:07:38;;;;;;;0.00;0.00;;;;;;;21.85;100.00;99942.91;5052062;28;20418;-46
2023/08/01 10:10:05;;;;;;;0.00;0.00;;;;;;;21.49;100.00;99943.00;5046297;28;20112;-46
2023/08/01 10:12:31;;;;;;;0.00;0.00;;;;;;;22.18;100.00;99927.72;5035127;28;20033;-47
2023/08/01 10:14:57;;;;;;;0.00;0.00;;;;;;;22.19;100.00;99939.53;5051293;28;20080;-47
2023/08/01 10:17:24;;;;;;;0.00;0.00;;;;;;;21.83;100.00;99937.72;5052366;28;20648;-47
2023/08/01 10:19:50;;;;;;;0.00;0.00;;;;;;;22.22;100.00;99939.81;5051791;28;20357;-43
2023/08/01 10:22:17;;;;;;;0.00;0.00;;;;;;;22.05;100.00;99940.09;5044225;28;20471;-46
2023/08/01 10:24:43;;;;;;;0.00;0.00;;;;;;;21.62;100.00;99936.16;5040005;28;20029;-44
2023/08/01 10:27:18;;;;;;;0.00;0.00;;;;;;;21.15;100.00;99942.75;5040296;28;20082;-45
2023/08/01 10:29:43;;;;;;;0.00;0.00;;;;;;;21.03;100.00;99941.06;5052512;28;20029;-44
2023/08/01 10:32:09;;;;;;;0.00;0.00;;;;;;;21.82;100.00;99929.78;5043243;28;20385;-47
2023/08/01 10:34:35;;;;;;;0.00;0.00;;;;;;;22.05;100.00;99945.59;5032889;28;20396;-44
2023/08/01 10:37:01;;;;;;;0.00;0.00;;;;;;;21.90;100.00;99945.63;5039587;28;20032;-50
2023/08/01 10:39:28;;;;;;;0.00;0.00;;;;;;;21.61;100.00;99946.25;5033391;28;20099;-48
2023/08/01 10:42:04;;;;;;;0.00;0.00;;;;;;;21.45;100.00;99947.38;5033254;28;20014;-47
2023/08/01 10:44:31;;;;;;;0.00;0.00;;;;;;;21.42;100.00;99958.88;5043480;28;20037;-44
2023/08/01 10:47:00;;;;;;;0.10;0.00;;;;;;;21.25;100.00;99951.75;5046339;28;20078;-48
2023/08/01 10:49:39;;;;;;;0.00;0.00;;;;;;;21.12;100.00;99954.25;5048887;28;20109;-47
2023/08/01 10:52:26;;;;;;;0.00;0.00;;;;;;;21.25;100.00;99959.16;5049551;28;20031;-45
2023/08/01 10:54:59;;;;;;;0.08;0.00;;;;;;;21.81;100.00;99961.81;5042703;28;20033;-46
2023/08/01 10:57:26;;;;;;;0.00;0.00;;;;;;;22.17;100.00;99969.09;5048687;28;20029;-45
2023/08/01 10:59:51;;;;;;;0.00;0.00;;;;;;;22.59;100.00;99971.38;5034059;28;20029;-48
2023/08/01 11:02:22;;;;;;;0.00;0.00;;;;;;;22.44;100.00;99972.31;5041602;28;20029;-44
2023/08/01 11:05:04;;;;;;;0.00;0.00;;;;;;;22.73;100.00;99977.91;5037925;28;20113;-45
2023/08/01 11:07:30;;;;;;;0.10;0.00;;;;;;;22.92;100.00;99980.78;5039177;28;20036;-46
2023/08/01 11:10:12;;;;;;;0.00;0.00;;;;;;;22.72;100.00;99990.00;5049203;28;20033;-46
2023/08/01 11:12:42;;;;;;;0.00;0.00;;;;;;;22.47;100.00;99977.22;5048809;28;20037;-46
2023/08/01 11:15:10;;;;;;;0.00;0.00;;;;;;;22.97;100.00;99978.03;5048878;28;20048;-46
2023/08/01 11:17:36;;;;;;;0.00;0.00;;;;;;;23.54;100.00;99981.16;5035828;28;20026;-46
2023/08/01 11:20:07;;;;;;;0.00;0.00;;;;;;;24.23;100.00;99983.72;5030111;28;20056;-47